DAL246 KJFK-BIKF
Flight info
| Callsign | DAL246 |
|---|---|
| Flight time | 5h 6m |
| Altitude | 35000 |
| Route | GREKI DCT JUDDS DCT NELIE DCT GDM DCT ENE DCT MLT DCT FRAZR DCT YYR DCT DORYY/M080F350 DCT 58N050W 59N040W 63N030W DCT EPENI DCT ELDIS ELDIS4H |
| Aircraft | B763/H-SDE3FGHIM3RWXY/LB1 |
Departure
| Time | 2026-04-30 14:20 |
|---|---|
| Airport | John F. Kennedy International Airport (KJFK) |
Arrival
| Time | 2026-04-30 19:27 |
|---|---|
| Airport | Keflavik International Airport (BIKF) |
| Time | Latitude | Longitude | Altitude | Speed | Heading |
|---|---|---|---|---|---|
| 2026-04-30 13:29 | 40.63846 | -73.78040 | 18 ft | 0 kts | 262° |
| 2026-04-30 14:06 | 40.63849 | -73.78015 | 18 ft | 2 kts | 262° |
| 2026-04-30 14:07 | 40.63853 | -73.77984 | 18 ft | 2 kts | 244° |
| 2026-04-30 14:07 | 40.63862 | -73.77967 | 18 ft | 2 kts | 230° |
| 2026-04-30 14:07 | 40.63872 | -73.77953 | 18 ft | 2 kts | 216° |
| 2026-04-30 14:08 | 40.63898 | -73.77937 | 18 ft | 2 kts | 188° |
| 2026-04-30 14:08 | 40.63913 | -73.77937 | 18 ft | 1 kts | 175° |
| 2026-04-30 14:08 | 40.63917 | -73.77937 | 18 ft | 0 kts | 172° |
| 2026-04-30 14:15 | 40.63916 | -73.77937 | 18 ft | 1 kts | 172° |
| 2026-04-30 14:15 | 40.63884 | -73.77931 | 18 ft | 8 kts | 173° |
| 2026-04-30 14:16 | 40.63802 | -73.77917 | 18 ft | 16 kts | 173° |
| 2026-04-30 14:16 | 40.63660 | -73.77896 | 18 ft | 18 kts | 174° |
| 2026-04-30 14:16 | 40.63566 | -73.77846 | 16 ft | 17 kts | 125° |
| 2026-04-30 14:16 | 40.63615 | -73.77741 | 18 ft | 18 kts | 29° |
| 2026-04-30 14:17 | 40.63745 | -73.77640 | 18 ft | 24 kts | 31° |
| 2026-04-30 14:17 | 40.63910 | -73.77510 | 18 ft | 30 kts | 31° |
| 2026-04-30 14:17 | 40.64023 | -73.77423 | 18 ft | 17 kts | 30° |
| 2026-04-30 14:17 | 40.64137 | -73.77335 | 18 ft | 20 kts | 30° |
| 2026-04-30 14:18 | 40.64268 | -73.77233 | 18 ft | 23 kts | 31° |
| 2026-04-30 14:18 | 40.64397 | -73.77125 | 18 ft | 17 kts | 50° |
| 2026-04-30 14:18 | 40.64413 | -73.76994 | 18 ft | 0 kts | 105° |
| 2026-04-30 14:19 | 40.64407 | -73.76966 | 18 ft | 9 kts | 105° |
| 2026-04-30 14:19 | 40.64338 | -73.76882 | 18 ft | 20 kts | 188° |
| 2026-04-30 14:20 | 40.64187 | -73.77007 | 18 ft | 31 kts | 211° |
| 2026-04-30 14:20 | 40.63872 | -73.77256 | 18 ft | 90 kts | 211° |
| 2026-04-30 14:20 | 40.62051 | -73.78680 | 803 ft | 180 kts | 209° |
| 2026-04-30 14:21 | 40.61024 | -73.79421 | 1550 ft | 164 kts | 207° |
| 2026-04-30 14:21 | 40.59937 | -73.80116 | 2077 ft | 185 kts | 204° |
| 2026-04-30 14:21 | 40.58090 | -73.82408 | 2650 ft | 204 kts | 258° |
| 2026-04-30 14:22 | 40.58244 | -73.84319 | 2748 ft | 232 kts | 291° |
| 2026-04-30 14:22 | 40.60977 | -73.86767 | 3635 ft | 262 kts | 356° |
| 2026-04-30 14:22 | 40.62781 | -73.86302 | 4251 ft | 268 kts | 26° |
| 2026-04-30 14:23 | 40.65352 | -73.82780 | 5519 ft | 275 kts | 53° |
| 2026-04-30 14:23 | 40.67705 | -73.78734 | 6826 ft | 282 kts | 53° |
| 2026-04-30 14:24 | 40.70470 | -73.75079 | 8113 ft | 289 kts | 31° |
| 2026-04-30 14:24 | 40.72206 | -73.73758 | 8766 ft | 292 kts | 25° |
| 2026-04-30 14:25 | 40.75917 | -73.71462 | 10042 ft | 300 kts | 21° |
| 2026-04-30 14:25 | 40.80109 | -73.69109 | 10169 ft | 357 kts | 20° |
| 2026-04-30 14:26 | 40.84918 | -73.66457 | 11058 ft | 389 kts | 21° |
| 2026-04-30 14:26 | 40.87425 | -73.65076 | 11784 ft | 396 kts | 21° |
| 2026-04-30 14:26 | 40.92557 | -73.62247 | 13264 ft | 407 kts | 21° |
| 2026-04-30 14:27 | 40.95208 | -73.60785 | 13990 ft | 412 kts | 21° |
| 2026-04-30 14:27 | 40.97847 | -73.59328 | 14685 ft | 417 kts | 21° |
| 2026-04-30 14:27 | 41.00526 | -73.57849 | 15360 ft | 423 kts | 21° |
| 2026-04-30 14:28 | 41.05977 | -73.54836 | 16694 ft | 433 kts | 21° |
| 2026-04-30 14:28 | 41.08789 | -73.53278 | 17353 ft | 439 kts | 22° |
| 2026-04-30 14:28 | 41.11590 | -73.51714 | 17992 ft | 444 kts | 22° |
| 2026-04-30 14:28 | 41.14444 | -73.50128 | 18623 ft | 450 kts | 22° |
| 2026-04-30 14:29 | 41.20273 | -73.46888 | 19873 ft | 460 kts | 22° |
| 2026-04-30 14:29 | 41.26236 | -73.43568 | 21075 ft | 471 kts | 22° |
| 2026-04-30 14:30 | 41.35422 | -73.38442 | 22816 ft | 487 kts | 22° |
| 2026-04-30 14:31 | 41.41709 | -73.34926 | 23934 ft | 497 kts | 22° |
| 2026-04-30 14:31 | 41.47847 | -73.30695 | 24969 ft | 505 kts | 37° |
| 2026-04-30 14:31 | 41.50531 | -73.27733 | 25496 ft | 507 kts | 45° |
| 2026-04-30 14:32 | 41.55680 | -73.21128 | 26522 ft | 516 kts | 47° |
| 2026-04-30 14:32 | 41.58211 | -73.17790 | 27036 ft | 520 kts | 48° |
| 2026-04-30 14:32 | 41.60798 | -73.14355 | 27617 ft | 523 kts | 48° |
| 2026-04-30 14:33 | 41.63370 | -73.10925 | 28162 ft | 526 kts | 49° |
| 2026-04-30 14:33 | 41.68508 | -73.03938 | 29266 ft | 532 kts | 50° |
| 2026-04-30 14:33 | 41.71088 | -73.00417 | 29787 ft | 535 kts | 50° |
| 2026-04-30 14:34 | 41.76292 | -72.93308 | 29838 ft | 527 kts | 50° |
| 2026-04-30 14:34 | 41.81387 | -72.86326 | 29852 ft | 529 kts | 50° |
| 2026-04-30 14:35 | 41.89127 | -72.75688 | 30431 ft | 533 kts | 50° |
| 2026-04-30 14:35 | 41.91692 | -72.72155 | 31010 ft | 534 kts | 50° |
| 2026-04-30 14:36 | 41.94353 | -72.68704 | 31605 ft | 536 kts | 44° |
| 2026-04-30 14:36 | 41.97275 | -72.65595 | 32185 ft | 537 kts | 41° |
| 2026-04-30 14:36 | 42.00251 | -72.62511 | 32696 ft | 537 kts | 41° |
| 2026-04-30 14:36 | 42.03189 | -72.59474 | 33228 ft | 536 kts | 41° |
| 2026-04-30 14:37 | 42.06126 | -72.56435 | 33657 ft | 536 kts | 41° |
| 2026-04-30 14:37 | 42.09054 | -72.53404 | 34146 ft | 535 kts | 41° |
| 2026-04-30 14:37 | 42.12022 | -72.50328 | 34545 ft | 535 kts | 41° |
| 2026-04-30 14:37 | 42.14967 | -72.47273 | 34807 ft | 536 kts | 41° |
| 2026-04-30 14:38 | 42.17926 | -72.44199 | 34788 ft | 536 kts | 41° |
| 2026-04-30 14:38 | 42.23777 | -72.38113 | 34793 ft | 531 kts | 41° |
| 2026-04-30 14:39 | 42.29655 | -72.31982 | 34799 ft | 532 kts | 42° |
| 2026-04-30 14:39 | 42.35487 | -72.25883 | 34814 ft | 532 kts | 42° |
| 2026-04-30 14:40 | 42.44233 | -72.16710 | 34833 ft | 531 kts | 42° |
| 2026-04-30 14:40 | 42.50052 | -72.10590 | 34840 ft | 531 kts | 42° |
| 2026-04-30 14:41 | 42.55553 | -72.04021 | 34860 ft | 523 kts | 53° |
| 2026-04-30 14:41 | 42.60278 | -71.96623 | 34852 ft | 523 kts | 55° |
| 2026-04-30 14:42 | 42.64974 | -71.89106 | 34850 ft | 522 kts | 55° |
| 2026-04-30 14:42 | 42.69658 | -71.81556 | 34852 ft | 522 kts | 55° |
| 2026-04-30 14:43 | 42.74300 | -71.74049 | 34856 ft | 522 kts | 56° |
| 2026-04-30 14:43 | 42.78989 | -71.66441 | 34855 ft | 524 kts | 55° |
| 2026-04-30 14:44 | 42.83620 | -71.58914 | 34851 ft | 523 kts | 55° |
| 2026-04-30 14:44 | 42.88276 | -71.51324 | 34851 ft | 523 kts | 55° |
| 2026-04-30 14:45 | 42.92955 | -71.43675 | 34854 ft | 526 kts | 56° |
| 2026-04-30 14:45 | 42.97616 | -71.36039 | 34854 ft | 527 kts | 56° |
| 2026-04-30 14:46 | 43.02329 | -71.28297 | 34855 ft | 528 kts | 58° |
| 2026-04-30 14:46 | 43.07023 | -71.20564 | 34856 ft | 529 kts | 58° |
| 2026-04-30 14:47 | 43.11706 | -71.12826 | 34835 ft | 529 kts | 58° |
| 2026-04-30 14:47 | 43.16354 | -71.05128 | 34836 ft | 529 kts | 58° |
| 2026-04-30 14:48 | 43.21025 | -70.97373 | 34836 ft | 524 kts | 58° |
| 2026-04-30 14:48 | 43.25585 | -70.89786 | 34839 ft | 513 kts | 58° |
| 2026-04-30 14:49 | 43.30105 | -70.82237 | 34850 ft | 509 kts | 58° |
| 2026-04-30 14:49 | 43.34564 | -70.74776 | 34854 ft | 504 kts | 58° |
| 2026-04-30 14:50 | 43.41264 | -70.63634 | 34852 ft | 509 kts | 53° |
| 2026-04-30 14:51 | 43.46790 | -70.57395 | 34867 ft | 523 kts | 39° |
| 2026-04-30 14:51 | 43.49806 | -70.54607 | 34862 ft | 523 kts | 39° |
| 2026-04-30 14:52 | 43.58774 | -70.46253 | 34874 ft | 522 kts | 39° |
| 2026-04-30 14:52 | 43.67759 | -70.37849 | 34880 ft | 521 kts | 39° |
| 2026-04-30 14:53 | 43.76762 | -70.29397 | 34886 ft | 521 kts | 40° |
| 2026-04-30 14:54 | 43.88713 | -70.18126 | 34902 ft | 522 kts | 40° |
| 2026-04-30 14:55 | 43.97669 | -70.09645 | 34913 ft | 521 kts | 40° |
| 2026-04-30 14:56 | 44.09557 | -69.98337 | 34908 ft | 521 kts | 40° |
| 2026-04-30 14:57 | 44.18470 | -69.89822 | 34887 ft | 521 kts | 40° |
| 2026-04-30 14:58 | 44.30425 | -69.78352 | 34895 ft | 521 kts | 40° |
| 2026-04-30 14:58 | 44.39330 | -69.69769 | 34899 ft | 522 kts | 40° |
| 2026-04-30 15:00 | 44.54181 | -69.55385 | 34899 ft | 522 kts | 40° |
| 2026-04-30 15:01 | 44.66093 | -69.43782 | 34900 ft | 522 kts | 40° |
| 2026-04-30 15:01 | 44.74990 | -69.35076 | 34901 ft | 522 kts | 40° |
| 2026-04-30 15:02 | 44.80924 | -69.29253 | 34910 ft | 521 kts | 41° |
| 2026-04-30 15:03 | 44.95731 | -69.14653 | 34929 ft | 520 kts | 41° |
| 2026-04-30 15:04 | 45.10714 | -68.99779 | 34932 ft | 534 kts | 39° |
| 2026-04-30 15:06 | 45.25831 | -68.84682 | 34943 ft | 532 kts | 38° |
| 2026-04-30 15:07 | 45.37871 | -68.72585 | 34952 ft | 532 kts | 38° |
| 2026-04-30 15:08 | 45.49919 | -68.60413 | 34955 ft | 532 kts | 38° |
| 2026-04-30 15:09 | 45.65358 | -68.45901 | 34958 ft | 535 kts | 32° |
| 2026-04-30 15:10 | 45.78136 | -68.35204 | 34963 ft | 534 kts | 32° |
| 2026-04-30 15:11 | 45.97294 | -68.19006 | 34976 ft | 534 kts | 33° |
| 2026-04-30 15:13 | 46.13245 | -68.05418 | 34963 ft | 534 kts | 33° |
| 2026-04-30 15:14 | 46.35524 | -67.86283 | 34951 ft | 535 kts | 33° |
| 2026-04-30 15:17 | 46.64137 | -67.61437 | 34955 ft | 534 kts | 33° |
| 2026-04-30 15:19 | 46.89520 | -67.39135 | 34943 ft | 535 kts | 33° |
| 2026-04-30 17:39 | 58.76950 | -43.20634 | 35013 ft | 458 kts | 69° |
| 2026-04-30 17:42 | 58.81997 | -42.59299 | 35016 ft | 465 kts | 73° |
| 2026-04-30 17:43 | 58.84413 | -42.28542 | 35014 ft | 466 kts | 73° |
| 2026-04-30 17:44 | 58.87225 | -41.91447 | 35012 ft | 466 kts | 73° |
| 2026-04-30 17:47 | 58.91246 | -41.35646 | 35012 ft | 464 kts | 73° |
| 2026-04-30 17:48 | 58.94196 | -40.92388 | 35014 ft | 464 kts | 75° |
| 2026-04-30 17:50 | 58.97384 | -40.42872 | 35014 ft | 462 kts | 77° |
| 2026-04-30 17:52 | 58.99781 | -40.05826 | 35005 ft | 455 kts | 70° |
| 2026-04-30 17:53 | 59.08325 | -39.82211 | 35015 ft | 428 kts | 39° |
| 2026-04-30 17:54 | 59.16766 | -39.65716 | 35024 ft | 430 kts | 42° |
| 2026-04-30 17:56 | 59.33194 | -39.31799 | 35012 ft | 431 kts | 43° |
| 2026-04-30 17:57 | 59.39356 | -39.18915 | 34905 ft | 430 kts | 43° |
| 2026-04-30 17:58 | 59.45477 | -39.06046 | 34831 ft | 431 kts | 43° |
| 2026-04-30 18:00 | 59.61971 | -38.70995 | 34829 ft | 439 kts | 44° |
| 2026-04-30 18:01 | 59.72272 | -38.48826 | 34828 ft | 439 kts | 44° |
| 2026-04-30 18:02 | 59.84592 | -38.22028 | 34827 ft | 439 kts | 44° |
| 2026-04-30 18:04 | 59.96843 | -37.95060 | 34825 ft | 439 kts | 44° |
| 2026-04-30 18:06 | 60.13137 | -37.58687 | 34835 ft | 439 kts | 44° |
| 2026-04-30 18:08 | 60.27283 | -37.26633 | 34834 ft | 440 kts | 45° |
| 2026-04-30 18:10 | 60.43498 | -36.89329 | 34831 ft | 445 kts | 46° |
| 2026-04-30 18:11 | 60.57662 | -36.56230 | 34830 ft | 445 kts | 46° |
| 2026-04-30 18:13 | 60.67727 | -36.32415 | 34829 ft | 445 kts | 46° |
| 2026-04-30 18:14 | 60.77762 | -36.08423 | 34828 ft | 445 kts | 47° |
| 2026-04-30 18:15 | 60.83789 | -35.93890 | 35017 ft | 447 kts | 46° |
| 2026-04-30 18:15 | 60.89749 | -35.79428 | 35016 ft | 445 kts | 46° |
| 2026-04-30 18:16 | 60.97736 | -35.59902 | 35015 ft | 445 kts | 46° |
| 2026-04-30 18:17 | 61.01703 | -35.50140 | 35015 ft | 445 kts | 46° |
| 2026-04-30 18:18 | 61.07635 | -35.35468 | 35014 ft | 445 kts | 46° |
| 2026-04-30 18:18 | 61.11583 | -35.25649 | 35024 ft | 446 kts | 47° |
| 2026-04-30 18:19 | 61.15546 | -35.15749 | 35023 ft | 446 kts | 47° |
| 2026-04-30 18:19 | 61.19476 | -35.05891 | 35023 ft | 446 kts | 47° |
| 2026-04-30 18:20 | 61.23398 | -34.96011 | 35022 ft | 448 kts | 47° |
| 2026-04-30 18:20 | 61.27380 | -34.85937 | 35022 ft | 452 kts | 47° |
| 2026-04-30 18:21 | 61.31361 | -34.75820 | 35022 ft | 455 kts | 47° |
| 2026-04-30 18:21 | 61.35348 | -34.65637 | 35020 ft | 454 kts | 47° |
| 2026-04-30 18:22 | 61.39339 | -34.55405 | 35021 ft | 454 kts | 47° |
| 2026-04-30 18:22 | 61.45289 | -34.40060 | 35020 ft | 454 kts | 47° |
| 2026-04-30 18:23 | 61.49252 | -34.29783 | 35020 ft | 455 kts | 49° |
| 2026-04-30 18:23 | 61.53194 | -34.19515 | 35019 ft | 455 kts | 49° |
| 2026-04-30 18:24 | 61.59121 | -34.03987 | 35013 ft | 455 kts | 49° |
| 2026-04-30 18:25 | 61.63067 | -33.93590 | 34954 ft | 455 kts | 49° |
| 2026-04-30 18:25 | 61.68960 | -33.77976 | 34883 ft | 455 kts | 49° |
| 2026-04-30 18:26 | 61.74852 | -33.62258 | 34883 ft | 455 kts | 49° |
| 2026-04-30 18:27 | 61.80721 | -33.46491 | 34882 ft | 455 kts | 49° |
| 2026-04-30 18:28 | 61.86539 | -33.30753 | 34881 ft | 455 kts | 49° |
| 2026-04-30 18:28 | 61.92390 | -33.14818 | 34881 ft | 455 kts | 49° |
| 2026-04-30 18:29 | 62.00127 | -32.93574 | 34881 ft | 459 kts | 49° |
| 2026-04-30 18:30 | 62.07916 | -32.71984 | 34880 ft | 459 kts | 49° |
| 2026-04-30 18:31 | 62.13708 | -32.55796 | 34885 ft | 460 kts | 49° |
| 2026-04-30 18:32 | 62.19485 | -32.39536 | 34887 ft | 459 kts | 49° |
| 2026-04-30 18:33 | 62.25261 | -32.23162 | 34886 ft | 460 kts | 50° |
| 2026-04-30 18:33 | 62.31027 | -32.06699 | 34886 ft | 460 kts | 50° |
| 2026-04-30 18:34 | 62.36760 | -31.90211 | 34886 ft | 460 kts | 50° |
| 2026-04-30 18:35 | 62.40559 | -31.79218 | 34885 ft | 460 kts | 50° |
| 2026-04-30 18:35 | 62.44358 | -31.68174 | 34885 ft | 460 kts | 50° |
| 2026-04-30 18:36 | 62.50062 | -31.51490 | 34885 ft | 460 kts | 50° |
| 2026-04-30 18:37 | 62.55720 | -31.34819 | 34885 ft | 460 kts | 51° |
| 2026-04-30 18:37 | 62.59489 | -31.23645 | 34884 ft | 460 kts | 51° |
| 2026-04-30 18:38 | 62.63233 | -31.12493 | 34883 ft | 460 kts | 51° |
| 2026-04-30 18:38 | 62.67000 | -31.01217 | 34884 ft | 461 kts | 51° |
| 2026-04-30 18:39 | 62.70754 | -30.89920 | 34884 ft | 461 kts | 52° |
| 2026-04-30 18:39 | 62.74480 | -30.78654 | 34883 ft | 461 kts | 52° |
| 2026-04-30 18:40 | 62.78236 | -30.67238 | 34883 ft | 461 kts | 52° |
| 2026-04-30 18:40 | 62.81950 | -30.55898 | 34883 ft | 461 kts | 52° |
| 2026-04-30 18:41 | 62.85680 | -30.44447 | 34883 ft | 461 kts | 52° |
| 2026-04-30 18:41 | 62.89378 | -30.33042 | 34882 ft | 461 kts | 52° |
| 2026-04-30 18:42 | 62.93076 | -30.21577 | 34882 ft | 462 kts | 52° |
| 2026-04-30 18:42 | 62.98467 | -30.04104 | 34885 ft | 464 kts | 60° |
| 2026-04-30 18:45 | 63.09452 | -29.29259 | 34854 ft | 469 kts | 71° |
| 2026-04-30 18:46 | 63.11252 | -29.15458 | 34860 ft | 469 kts | 71° |
| 2026-04-30 18:46 | 63.13041 | -29.01608 | 34860 ft | 469 kts | 71° |
| 2026-04-30 18:47 | 63.14817 | -28.87743 | 34860 ft | 471 kts | 72° |
| 2026-04-30 18:47 | 63.16583 | -28.73828 | 34860 ft | 472 kts | 72° |
| 2026-04-30 18:48 | 63.18349 | -28.59787 | 34859 ft | 471 kts | 72° |
| 2026-04-30 18:48 | 63.20094 | -28.45786 | 34859 ft | 471 kts | 72° |
| 2026-04-30 18:49 | 63.21827 | -28.31756 | 34859 ft | 471 kts | 72° |
| 2026-04-30 18:49 | 63.23544 | -28.17724 | 34859 ft | 472 kts | 72° |
| 2026-04-30 18:50 | 63.25248 | -28.03666 | 34859 ft | 471 kts | 72° |
| 2026-04-30 18:50 | 63.26924 | -27.89714 | 34859 ft | 471 kts | 72° |
| 2026-04-30 18:51 | 63.28607 | -27.75574 | 34859 ft | 471 kts | 72° |
| 2026-04-30 18:51 | 63.30273 | -27.61441 | 34859 ft | 471 kts | 72° |
| 2026-04-30 18:52 | 63.31911 | -27.47407 | 34859 ft | 471 kts | 72° |
| 2026-04-30 18:52 | 63.33543 | -27.33297 | 34858 ft | 471 kts | 73° |
| 2026-04-30 18:53 | 63.35132 | -27.19410 | 34633 ft | 453 kts | 73° |
| 2026-04-30 18:53 | 63.35908 | -27.12593 | 34090 ft | 453 kts | 73° |
| 2026-04-30 18:53 | 63.36671 | -27.05854 | 33410 ft | 454 kts | 73° |
| 2026-04-30 18:53 | 63.37444 | -26.98994 | 32659 ft | 455 kts | 73° |
| 2026-04-30 18:54 | 63.38203 | -26.92231 | 32083 ft | 451 kts | 73° |
| 2026-04-30 18:54 | 63.39101 | -26.85560 | 31760 ft | 449 kts | 69° |
| 2026-04-30 18:54 | 63.40075 | -26.78934 | 31235 ft | 455 kts | 70° |
| 2026-04-30 18:54 | 63.41042 | -26.72248 | 30702 ft | 453 kts | 70° |
| 2026-04-30 18:55 | 63.42006 | -26.65536 | 30170 ft | 455 kts | 70° |
| 2026-04-30 18:55 | 63.43927 | -26.52046 | 29102 ft | 453 kts | 70° |
| 2026-04-30 18:55 | 63.44865 | -26.45409 | 28572 ft | 447 kts | 70° |
| 2026-04-30 18:56 | 63.46700 | -26.32365 | 27538 ft | 439 kts | 71° |
| 2026-04-30 18:56 | 63.47620 | -26.25785 | 27021 ft | 436 kts | 71° |
| 2026-04-30 18:56 | 63.48523 | -26.19301 | 26512 ft | 433 kts | 71° |
| 2026-04-30 18:57 | 63.50285 | -26.06576 | 25516 ft | 425 kts | 71° |
| 2026-04-30 18:57 | 63.51145 | -26.00331 | 25029 ft | 422 kts | 71° |
| 2026-04-30 18:57 | 63.52008 | -25.94038 | 24540 ft | 419 kts | 71° |
| 2026-04-30 18:58 | 63.53701 | -25.81625 | 23579 ft | 413 kts | 71° |
| 2026-04-30 18:58 | 63.54525 | -25.75546 | 23110 ft | 410 kts | 71° |
| 2026-04-30 18:58 | 63.55353 | -25.69420 | 22638 ft | 407 kts | 71° |
| 2026-04-30 18:59 | 63.56961 | -25.57458 | 21720 ft | 401 kts | 71° |
| 2026-04-30 19:00 | 63.59334 | -25.39636 | 20357 ft | 393 kts | 71° |
| 2026-04-30 19:00 | 63.60100 | -25.33842 | 19915 ft | 390 kts | 71° |
| 2026-04-30 19:00 | 63.61627 | -25.22226 | 19030 ft | 385 kts | 71° |
| 2026-04-30 19:01 | 63.63124 | -25.10747 | 18158 ft | 377 kts | 71° |
| 2026-04-30 19:01 | 63.63850 | -25.05152 | 17732 ft | 371 kts | 71° |
| 2026-04-30 19:02 | 63.65271 | -24.94151 | 16900 ft | 360 kts | 71° |
| 2026-04-30 19:02 | 63.66656 | -24.83357 | 16086 ft | 356 kts | 71° |
| 2026-04-30 19:03 | 63.68322 | -24.73132 | 15279 ft | 347 kts | 57° |
| 2026-04-30 19:03 | 63.70738 | -24.63776 | 14523 ft | 342 kts | 57° |
| 2026-04-30 19:04 | 63.73100 | -24.54550 | 13774 ft | 337 kts | 57° |
| 2026-04-30 19:04 | 63.75417 | -24.45451 | 13038 ft | 333 kts | 57° |
| 2026-04-30 19:05 | 63.77700 | -24.36451 | 12312 ft | 329 kts | 57° |
| 2026-04-30 19:05 | 63.79946 | -24.27554 | 11601 ft | 327 kts | 58° |
| 2026-04-30 19:06 | 63.82199 | -24.18600 | 10885 ft | 326 kts | 57° |
| 2026-04-30 19:06 | 63.83315 | -24.14148 | 10529 ft | 326 kts | 57° |
| 2026-04-30 19:06 | 63.85522 | -24.05320 | 10135 ft | 311 kts | 57° |
| 2026-04-30 19:07 | 63.87539 | -23.97224 | 10086 ft | 282 kts | 56° |
| 2026-04-30 19:07 | 63.88483 | -23.93424 | 10035 ft | 270 kts | 56° |
| 2026-04-30 19:08 | 63.90305 | -23.86088 | 9460 ft | 265 kts | 56° |
| 2026-04-30 19:08 | 63.92106 | -23.78805 | 8876 ft | 263 kts | 56° |
| 2026-04-30 19:08 | 63.93004 | -23.75162 | 8621 ft | 264 kts | 56° |
| 2026-04-30 19:09 | 63.94787 | -23.67905 | 8145 ft | 264 kts | 56° |
| 2026-04-30 19:09 | 63.95683 | -23.64251 | 7934 ft | 264 kts | 56° |
| 2026-04-30 19:09 | 63.96576 | -23.60603 | 7722 ft | 265 kts | 56° |
| 2026-04-30 19:10 | 63.98365 | -23.53268 | 7293 ft | 265 kts | 56° |
| 2026-04-30 19:10 | 64.00159 | -23.45893 | 6859 ft | 265 kts | 56° |
| 2026-04-30 19:11 | 64.01050 | -23.42223 | 6642 ft | 265 kts | 56° |
| 2026-04-30 19:11 | 64.02829 | -23.34869 | 6205 ft | 266 kts | 57° |
| 2026-04-30 19:11 | 64.03725 | -23.31157 | 5982 ft | 266 kts | 58° |
| 2026-04-30 19:12 | 64.04614 | -23.27472 | 5759 ft | 266 kts | 58° |
| 2026-04-30 19:12 | 64.05498 | -23.23796 | 5538 ft | 266 kts | 58° |
| 2026-04-30 19:12 | 64.06397 | -23.20049 | 5312 ft | 266 kts | 58° |
| 2026-04-30 19:13 | 64.08169 | -23.12653 | 4866 ft | 265 kts | 58° |
| 2026-04-30 19:13 | 64.09928 | -23.05283 | 4421 ft | 265 kts | 59° |
| 2026-04-30 19:13 | 64.10811 | -23.01578 | 4199 ft | 264 kts | 59° |
| 2026-04-30 19:14 | 64.11684 | -22.97902 | 3990 ft | 263 kts | 59° |
| 2026-04-30 19:14 | 64.12552 | -22.94245 | 3983 ft | 262 kts | 59° |
| 2026-04-30 19:14 | 64.13351 | -22.90543 | 3976 ft | 257 kts | 71° |
| 2026-04-30 19:14 | 64.13460 | -22.86585 | 3977 ft | 245 kts | 103° |
| 2026-04-30 19:15 | 64.13025 | -22.82933 | 3978 ft | 233 kts | 107° |
| 2026-04-30 19:15 | 64.12181 | -22.75997 | 3911 ft | 221 kts | 106° |
| 2026-04-30 19:15 | 64.11771 | -22.72627 | 3781 ft | 223 kts | 106° |
| 2026-04-30 19:16 | 64.11449 | -22.69182 | 3550 ft | 221 kts | 97° |
| 2026-04-30 19:16 | 64.11312 | -22.65687 | 3269 ft | 220 kts | 96° |
| 2026-04-30 19:16 | 64.10423 | -22.59048 | 2526 ft | 220 kts | 126° |
| 2026-04-30 19:17 | 64.09281 | -22.57146 | 2484 ft | 194 kts | 173° |
| 2026-04-30 19:17 | 64.07046 | -22.59567 | 2507 ft | 185 kts | 225° |
| 2026-04-30 19:17 | 64.06192 | -22.61765 | 2496 ft | 186 kts | 237° |
| 2026-04-30 19:18 | 64.05396 | -22.66442 | 2496 ft | 192 kts | 261° |
| 2026-04-30 19:18 | 64.05448 | -22.70513 | 2498 ft | 193 kts | 280° |
| 2026-04-30 19:18 | 64.05946 | -22.73354 | 2496 ft | 196 kts | 300° |
| 2026-04-30 19:19 | 64.06889 | -22.75584 | 2499 ft | 201 kts | 323° |
| 2026-04-30 19:19 | 64.08213 | -22.76732 | 2506 ft | 205 kts | 345° |
| 2026-04-30 19:19 | 64.11037 | -22.77881 | 2494 ft | 206 kts | 346° |
| 2026-04-30 19:20 | 64.12442 | -22.78456 | 2495 ft | 206 kts | 346° |
| 2026-04-30 19:20 | 64.13855 | -22.79035 | 2495 ft | 206 kts | 346° |
| 2026-04-30 19:20 | 64.16667 | -22.80191 | 2495 ft | 206 kts | 346° |
| 2026-04-30 19:21 | 64.18085 | -22.80578 | 2489 ft | 209 kts | 0° |
| 2026-04-30 19:21 | 64.20493 | -22.76999 | 2503 ft | 217 kts | 61° |
| 2026-04-30 19:22 | 64.20569 | -22.70367 | 2503 ft | 213 kts | 120° |
| 2026-04-30 19:22 | 64.17330 | -22.63809 | 2464 ft | 209 kts | 146° |
| 2026-04-30 19:23 | 64.13729 | -22.59837 | 2079 ft | 186 kts | 191° |
| 2026-04-30 19:24 | 64.11133 | -22.60360 | 1835 ft | 186 kts | 185° |
| 2026-04-30 19:24 | 64.09858 | -22.60445 | 1790 ft | 184 kts | 184° |
| 2026-04-30 19:24 | 64.07256 | -22.60513 | 1749 ft | 189 kts | 183° |
| 2026-04-30 19:25 | 64.03489 | -22.60528 | 1019 ft | 167 kts | 183° |
| 2026-04-30 19:26 | 64.01337 | -22.60532 | 592 ft | 138 kts | 183° |
| 2026-04-30 19:26 | 63.99492 | -22.60548 | 259 ft | 138 kts | 183° |
| 2026-04-30 19:26 | 63.98574 | -22.60548 | 156 ft | 121 kts | 181° |
| 2026-04-30 19:27 | 63.97420 | -22.60555 | 151 ft | 41 kts | 180° |
| 2026-04-30 19:27 | 63.96967 | -22.60554 | 138 ft | 30 kts | 179° |
| 2026-04-30 19:28 | 63.96748 | -22.60552 | 131 ft | 31 kts | 176° |
| 2026-04-30 19:28 | 63.96461 | -22.60738 | 119 ft | 18 kts | 266° |
| 2026-04-30 19:29 | 63.96468 | -22.60880 | 118 ft | 0 kts | 296° |
| 2026-04-30 19:29 | 63.96477 | -22.60903 | 119 ft | 5 kts | 317° |
| 2026-04-30 19:30 | 63.96822 | -22.60954 | 130 ft | 26 kts | 359° |
| 2026-04-30 19:30 | 63.97145 | -22.60953 | 139 ft | 20 kts | 359° |
| 2026-04-30 19:31 | 63.97431 | -22.60951 | 146 ft | 19 kts | 359° |
| 2026-04-30 19:31 | 63.97566 | -22.60951 | 148 ft | 19 kts | 360° |
| 2026-04-30 19:31 | 63.97836 | -22.60951 | 150 ft | 20 kts | 359° |
| 2026-04-30 19:32 | 63.97983 | -22.60953 | 153 ft | 21 kts | 359° |
| 2026-04-30 19:32 | 63.98133 | -22.60952 | 153 ft | 22 kts | 359° |
| 2026-04-30 19:32 | 63.98295 | -22.60952 | 153 ft | 24 kts | 0° |
| 2026-04-30 19:32 | 63.98454 | -22.60951 | 150 ft | 22 kts | 360° |
| 2026-04-30 19:33 | 63.98612 | -22.60949 | 150 ft | 20 kts | 359° |
| 2026-04-30 19:33 | 63.98760 | -22.60951 | 150 ft | 21 kts | 359° |
| 2026-04-30 19:33 | 63.98903 | -22.60950 | 148 ft | 18 kts | 359° |
| 2026-04-30 19:33 | 63.99038 | -22.60949 | 146 ft | 20 kts | 360° |
| 2026-04-30 19:34 | 63.99106 | -22.60949 | 146 ft | 0 kts | 360° |
| 2026-04-30 19:35 | 63.99115 | -22.60948 | 146 ft | 3 kts | 360° |
| 2026-04-30 19:35 | 63.99150 | -22.60970 | 146 ft | 7 kts | 322° |
| 2026-04-30 19:36 | 63.99171 | -22.61104 | 146 ft | 11 kts | 275° |
| 2026-04-30 19:36 | 63.99172 | -22.61332 | 143 ft | 18 kts | 269° |
| 2026-04-30 19:36 | 63.99173 | -22.62002 | 143 ft | 21 kts | 269° |
| 2026-04-30 19:37 | 63.99172 | -22.62344 | 143 ft | 20 kts | 268° |
| 2026-04-30 19:37 | 63.99220 | -22.62456 | 141 ft | 10 kts | 351° |
| 2026-04-30 19:37 | 63.99274 | -22.62461 | 142 ft | 2 kts | 359° |